Time;durP1;ratioP1;P1;durP2;ratioP2;P2;SDS_P1;SDS_P2;PMS_P1;PMS_P2;Temp;Humidity;BMP_temperature;BMP_pressure;BME280_temperature;BME280_humidity;BME280_pressure;Samples;Min_cycle;Max_cycle;Signal;HPM_P1;HPM_P2
2023/07/16 00:00:24;;;;;;;22.65;21.88;;;22.20;99.90;;;;;;5038632;28;20732;-68
2023/07/16 00:02:51;;;;;;;11.00;10.63;;;22.20;99.90;;;;;;5040958;28;20296;-68
2023/07/16 00:05:18;;;;;;;6.35;6.15;;;22.10;99.90;;;;;;5033869;28;20215;-67
2023/07/16 00:07:44;;;;;;;5.97;5.78;;;22.10;99.90;;;;;;5033797;28;20216;-67
2023/07/16 00:10:11;;;;;;;6.93;6.72;;;22.00;99.90;;;;;;5031507;28;20702;-68
2023/07/16 00:12:39;;;;;;;6.28;6.07;;;21.90;99.90;;;;;;5031696;28;20689;-68
2023/07/16 00:15:07;;;;;;;6.05;5.85;;;21.90;99.90;;;;;;5032477;28;20208;-67
2023/07/16 00:17:35;;;;;;;5.75;5.35;;;21.80;99.90;;;;;;5032497;28;20213;-67
2023/07/16 00:20:02;;;;;;;6.88;6.68;;;21.80;99.90;;;;;;5031046;28;20228;-68
2023/07/16 00:22:29;;;;;;;7.68;7.43;;;21.80;99.90;;;;;;5032309;28;20204;-68
2023/07/16 00:24:56;;;;;;;6.43;6.22;;;21.70;99.90;;;;;;5032372;28;20209;-68
2023/07/16 00:27:23;;;;;;;5.90;5.70;;;21.60;99.90;;;;;;5033593;28;20851;-67
2023/07/16 00:29:49;;;;;;;6.95;6.75;;;21.50;99.90;;;;;;5031110;28;20205;-67
2023/07/16 00:32:16;;;;;;;8.15;7.88;;;21.40;99.90;;;;;;5031561;28;20231;-69
2023/07/16 00:34:45;;;;;;;7.18;6.97;;;21.40;99.90;;;;;;5045392;22;20196;-65
2023/07/16 00:37:12;;;;;;;6.20;6.00;;;21.40;99.90;;;;;;5030640;28;20209;-66
2023/07/16 00:39:39;;;;;;;5.60;5.40;;;21.50;99.90;;;;;;5028318;28;20224;-66
2023/07/16 00:42:06;;;;;;;5.70;5.50;;;21.50;99.90;;;;;;5019181;28;20189;-66
2023/07/16 00:44:33;;;;;;;5.82;5.63;;;21.60;99.90;;;;;;5020617;28;20297;-66
2023/07/16 00:47:00;;;;;;;5.65;5.45;;;21.60;99.90;;;;;;5022354;28;20200;-66
2023/07/16 00:49:28;;;;;;;5.68;5.47;;;21.50;99.90;;;;;;5023703;28;20221;-67
2023/07/16 00:51:57;;;;;;;5.38;5.18;;;21.50;99.90;;;;;;5029022;28;20759;-66
2023/07/16 00:54:24;;;;;;;5.88;5.68;;;21.60;99.90;;;;;;5034662;28;20228;-65
2023/07/16 00:56:51;;;;;;;5.40;5.20;;;21.50;99.90;;;;;;5027403;28;20655;-65
2023/07/16 00:59:18;;;;;;;6.22;6.03;;;21.30;99.90;;;;;;5023713;28;20211;-67
2023/07/16 01:01:45;;;;;;;5.90;5.70;;;21.20;99.90;;;;;;5027400;28;20363;-65
2023/07/16 01:04:12;;;;;;;5.70;5.50;;;21.10;99.90;;;;;;5032128;28;20219;-67
2023/07/16 01:06:44;;;;;;;5.78;5.57;;;21.20;99.90;;;;;;5026859;28;20216;-66
2023/07/16 01:09:17;;;;;;;5.90;5.70;;;21.10;99.90;;;;;;5025683;28;20193;-66
2023/07/16 01:11:44;;;;;;;5.90;5.70;;;21.00;99.90;;;;;;5028124;28;20213;-66
2023/07/16 01:14:13;;;;;;;6.43;6.22;;;21.00;99.90;;;;;;5020784;28;20731;-66
2023/07/16 01:16:42;;;;;;;8.25;7.95;;;20.90;99.90;;;;;;5022926;28;20217;-65
2023/07/16 01:19:09;;;;;;;7.10;6.90;;;20.90;99.90;;;;;;5019736;28;20197;-67
2023/07/16 01:21:41;;;;;;;5.53;5.32;;;20.90;99.90;;;;;;5020141;28;20211;-65
2023/07/16 01:24:38;;;;;;;6.05;5.85;;;20.90;99.90;;;;;;5020161;28;20193;-66
2023/07/16 01:27:28;;;;;;;5.63;5.43;;;20.90;99.90;;;;;;5020076;28;20208;-67
2023/07/16 01:30:02;;;;;;;5.20;5.00;;;20.90;99.90;;;;;;5020662;28;20197;-66
2023/07/16 01:32:31;;;;;;;5.28;5.07;;;20.90;99.90;;;;;;5020973;28;20189;-68
2023/07/16 01:34:59;;;;;;;5.13;4.93;;;20.80;99.90;;;;;;5026711;28;20304;-65
2023/07/16 01:37:27;;;;;;;5.70;5.50;;;20.90;99.90;;;;;;5042773;28;20291;-64
2023/07/16 01:39:55;;;;;;;5.13;4.95;;;20.80;99.90;;;;;;5039502;28;20237;-67
2023/07/16 01:42:21;;;;;;;5.25;5.05;;;20.90;99.90;;;;;;5023167;28;20244;-65
2023/07/16 01:44:48;;;;;;;5.40;5.20;;;20.90;99.90;;;;;;5020832;28;20328;-67
2023/07/16 01:47:25;;;;;;;5.40;5.20;;;20.90;99.90;;;;;;5019308;28;20209;-66
2023/07/16 01:49:52;;;;;;;5.15;4.95;;;20.80;99.90;;;;;;5019634;28;20219;-66
2023/07/16 01:52:18;;;;;;;5.13;4.93;;;20.60;99.90;;;;;;5021908;28;20221;-69
2023/07/16 01:54:45;;;;;;;5.25;5.05;;;20.40;99.90;;;;;;5021325;28;20219;-67
2023/07/16 01:57:12;;;;;;;5.38;5.18;;;20.40;99.90;;;;;;5020393;28;20288;-66
2023/07/16 01:59:39;;;;;;;5.72;5.53;;;20.40;99.90;;;;;;5022414;28;20201;-66
2023/07/16 02:02:06;;;;;;;5.57;5.38;;;20.30;99.90;;;;;;5025900;28;20208;-67
2023/07/16 02:04:34;;;;;;;6.13;5.93;;;20.30;99.90;;;;;;5040369;28;20268;-67
2023/07/16 02:07:01;;;;;;;6.07;5.88;;;20.20;99.90;;;;;;5039823;28;20204;-67
2023/07/16 02:09:28;;;;;;;5.82;5.63;;;20.20;99.90;;;;;;5039239;28;20239;-67
2023/07/16 02:11:55;;;;;;;5.90;5.70;;;20.20;99.90;;;;;;5039097;28;20244;-68
2023/07/16 02:14:22;;;;;;;6.10;5.90;;;20.10;99.90;;;;;;5036832;28;20215;-67
2023/07/16 02:16:48;;;;;;;6.85;6.55;;;20.10;99.90;;;;;;5032278;28;20582;-67
2023/07/16 02:19:15;;;;;;;7.10;6.90;;;20.10;99.90;;;;;;5030028;28;20295;-69
2023/07/16 02:21:44;;;;;;;6.10;5.90;;;20.20;99.90;;;;;;5036920;28;20296;-68
2023/07/16 02:24:10;;;;;;;7.35;7.05;;;20.20;99.90;;;;;;5030535;28;20208;-66
2023/07/16 02:26:37;;;;;;;6.50;6.30;;;20.20;99.90;;;;;;5030422;28;20934;-67
2023/07/16 02:29:08;;;;;;;8.38;8.07;;;20.20;99.90;;;;;;5029540;28;20204;-68
2023/07/16 02:31:35;;;;;;;8.38;8.07;;;20.20;99.90;;;;;;5030392;28;20671;-67
2023/07/16 02:34:02;;;;;;;7.97;7.72;;;20.20;99.90;;;;;;5030390;28;20212;-67
2023/07/16 02:36:29;;;;;;;8.57;8.27;;;20.20;99.90;;;;;;5029600;28;20733;-67
2023/07/16 02:38:57;;;;;;;8.27;8.00;;;20.20;99.90;;;;;;5029995;28;20239;-67
2023/07/16 02:41:23;;;;;;;9.77;9.45;;;20.20;99.90;;;;;;5029285;28;20205;-68
2023/07/16 02:44:01;;;;;;;8.48;8.18;;;20.10;99.90;;;;;;5029163;28;20212;-67
2023/07/16 02:46:28;;;;;;;9.63;9.30;;;20.10;99.90;;;;;;5030705;28;20325;-67
2023/07/16 02:48:54;;;;;;;6.85;6.65;;;20.00;99.90;;;;;;5030884;28;20211;-66
2023/07/16 02:51:21;;;;;;;6.32;6.13;;;19.90;99.90;;;;;;5030374;28;20225;-67
2023/07/16 02:53:48;;;;;;;6.93;6.72;;;19.90;99.90;;;;;;5031010;28;20674;-67
2023/07/16 02:56:17;;;;;;;8.02;7.63;;;20.00;99.90;;;;;;5033032;28;20228;-66
2023/07/16 02:58:44;;;;;;;6.60;6.40;;;20.00;99.90;;;;;;5033375;28;20263;-68
2023/07/16 03:01:11;;;;;;;7.10;6.85;;;20.00;99.90;;;;;;5031363;28;20205;-66
2023/07/16 03:03:37;;;;;;;8.40;8.13;;;19.90;99.90;;;;;;5030693;28;20208;-67
2023/07/16 03:06:04;;;;;;;7.38;7.18;;;19.90;99.90;;;;;;5033356;28;20319;-67
2023/07/16 03:08:31;;;;;;;7.70;7.45;;;19.90;99.90;;;;;;5035039;28;20239;-67
2023/07/16 03:10:58;;;;;;;8.30;8.00;;;19.90;99.90;;;;;;5033548;28;20227;-67
2023/07/16 03:13:26;;;;;;;7.88;7.57;;;19.90;99.90;;;;;;5032759;28;20216;-68
2023/07/16 03:15:53;;;;;;;6.68;6.47;;;19.90;99.90;;;;;;5033448;28;20225;-67
2023/07/16 03:18:20;;;;;;;7.75;7.47;;;19.90;99.90;;;;;;5033564;28;20214;-66
2023/07/16 03:20:47;;;;;;;7.17;6.97;;;19.90;99.90;;;;;;5032465;28;20689;-67
2023/07/16 03:23:14;;;;;;;7.72;7.40;;;19.80;99.90;;;;;;5033825;28;20300;-68
2023/07/16 03:25:41;;;;;;;5.88;5.68;;;19.80;99.90;;;;;;5033222;28;20241;-67
2023/07/16 03:28:07;;;;;;;10.48;10.13;;;19.80;99.90;;;;;;5033563;28;20207;-66
2023/07/16 03:30:37;;;;;;;9.10;8.82;;;19.70;99.90;;;;;;5032315;28;20209;-66
2023/07/16 03:33:04;;;;;;;12.07;11.68;;;19.60;99.90;;;;;;5033256;28;20228;-67
2023/07/16 03:35:31;;;;;;;6.03;5.82;;;19.50;99.90;;;;;;5032857;28;20241;-67
2023/07/16 03:37:58;;;;;;;6.18;5.97;;;19.50;99.90;;;;;;5033172;28;20793;-68
2023/07/16 03:40:27;;;;;;;8.80;8.50;;;19.40;99.90;;;;;;5032079;28;20232;-66
2023/07/16 03:42:54;;;;;;;6.43;6.22;;;19.50;99.90;;;;;;5032999;28;20685;-67
2023/07/16 03:45:21;;;;;;;6.00;5.80;;;19.50;99.90;;;;;;5035315;28;20235;-65
2023/07/16 03:47:49;;;;;;;5.78;5.57;;;19.50;99.90;;;;;;5034622;28;20205;-66
2023/07/16 03:50:16;;;;;;;5.85;5.65;;;19.60;99.90;;;;;;5033931;28;20641;-67
2023/07/16 03:52:44;;;;;;;5.93;5.72;;;19.60;99.90;;;;;;5033812;28;20315;-68
2023/07/16 03:55:11;;;;;;;5.70;5.50;;;19.60;99.90;;;;;;5033428;28;20224;-67
2023/07/16 03:57:38;;;;;;;5.50;5.30;;;19.60;99.90;;;;;;5033947;28;20214;-69
2023/07/16 04:00:08;;;;;;;6.10;5.90;;;19.60;99.90;;;;;;5032127;28;20208;-67
2023/07/16 04:02:36;;;;;;;5.93;5.72;;;19.60;99.90;;;;;;5032509;28;20185;-67
2023/07/16 04:05:04;;;;;;;5.97;5.78;;;19.60;99.90;;;;;;5032322;28;20238;-68
2023/07/16 04:07:31;;;;;;;6.35;6.15;;;19.60;99.90;;;;;;5033858;28;20205;-66
2023/07/16 04:09:58;;;;;;;6.30;6.10;;;19.60;99.90;;;;;;5032331;28;20851;-67
2023/07/16 04:12:25;;;;;;;6.20;6.00;;;19.60;99.90;;;;;;5032810;28;20229;-66
2023/07/16 04:14:57;;;;;;;6.50;6.20;;;19.60;99.90;;;;;;5032483;28;20228;-66
2023/07/16 04:17:24;;;;;;;6.88;6.60;;;19.60;99.90;;;;;;5030904;28;20207;-66
2023/07/16 04:19:51;;;;;;;6.75;6.45;;;19.60;99.90;;;;;;5032098;28;20205;-67
2023/07/16 04:22:19;;;;;;;6.32;6.13;;;19.50;99.90;;;;;;5032444;28;20209;-66
2023/07/16 04:24:46;;;;;;;6.03;5.82;;;19.40;99.90;;;;;;5032641;28;20224;-66
2023/07/16 04:27:13;;;;;;;6.00;5.80;;;19.40;99.90;;;;;;5032152;28;20204;-68
2023/07/16 04:29:39;;;;;;;7.22;7.00;;;19.40;99.90;;;;;;5032266;28;20209;-66
2023/07/16 04:32:07;;;;;;;6.18;5.97;;;19.40;99.90;;;;;;5033568;28;20221;-66
2023/07/16 04:34:34;;;;;;;6.95;6.72;;;19.40;99.90;;;;;;5032544;28;20219;-67
2023/07/16 04:37:00;;;;;;;9.03;8.73;;;19.40;99.90;;;;;;5033022;28;20204;-68
2023/07/16 04:39:29;;;;;;;7.43;7.20;;;19.40;99.90;;;;;;5032083;28;20892;-67
2023/07/16 04:41:55;;;;;;;6.95;6.65;;;19.40;99.90;;;;;;5031341;28;20292;-67
2023/07/16 04:44:22;;;;;;;11.68;11.20;;;19.30;99.90;;;;;;5031741;28;20632;-67
2023/07/16 04:46:49;;;;;;;7.88;7.57;;;19.30;99.90;;;;;;5031570;28;20215;-67
2023/07/16 04:49:16;;;;;;;6.53;6.32;;;19.30;99.90;;;;;;5030442;28;20219;-67
2023/07/16 04:51:43;;;;;;;6.28;6.07;;;19.40;99.90;;;;;;5031404;28;20239;-69
2023/07/16 04:54:10;;;;;;;6.70;6.40;;;19.50;99.90;;;;;;5031749;28;20208;-68
2023/07/16 04:56:38;;;;;;;6.38;6.18;;;19.60;99.90;;;;;;5031862;28;20230;-68
2023/07/16 04:59:05;;;;;;;6.78;6.57;;;19.70;99.90;;;;;;5031151;28;20215;-68
2023/07/16 05:01:31;;;;;;;5.95;5.75;;;19.60;99.90;;;;;;5031449;28;20263;-67
2023/07/16 05:03:58;;;;;;;6.50;6.30;;;19.60;99.90;;;;;;5031247;28;20209;-68
2023/07/16 05:06:25;;;;;;;6.75;6.45;;;19.50;99.90;;;;;;5031702;28;20605;-68
2023/07/16 05:08:52;;;;;;;6.70;6.50;;;19.60;99.90;;;;;;5031369;28;20214;-69
2023/07/16 05:11:19;;;;;;;6.60;6.40;;;19.60;99.90;;;;;;5030830;28;20212;-68
2023/07/16 05:13:47;;;;;;;6.35;6.15;;;19.60;99.90;;;;;;5032049;28;20230;-67
2023/07/16 05:16:14;;;;;;;6.60;6.40;;;19.60;99.90;;;;;;5032013;28;20231;-66
2023/07/16 05:18:40;;;;;;;7.00;6.70;;;19.60;99.90;;;;;;5032504;28;20741;-67
2023/07/16 05:21:07;;;;;;;6.75;6.55;;;19.60;99.90;;;;;;5031677;28;20200;-67
2023/07/16 05:23:34;;;;;;;6.65;6.43;;;19.60;99.90;;;;;;5031919;28;20208;-66
2023/07/16 05:26:01;;;;;;;7.03;6.80;;;19.60;99.90;;;;;;5032109;28;20228;-67
2023/07/16 05:28:28;;;;;;;6.50;6.30;;;19.60;99.90;;;;;;5031592;28;20204;-67
2023/07/16 05:31:03;;;;;;;6.90;6.60;;;19.70;99.90;;;;;;5029933;28;20708;-67
2023/07/16 05:33:30;;;;;;;6.60;6.40;;;19.70;99.90;;;;;;5031072;28;20286;-67
2023/07/16 05:35:56;;;;;;;6.43;6.22;;;19.80;99.90;;;;;;5030482;28;20248;-67
2023/07/16 05:38:23;;;;;;;6.38;6.18;;;19.80;99.90;;;;;;5030594;28;20244;-66
2023/07/16 05:40:51;;;;;;;6.30;6.10;;;19.90;99.90;;;;;;5029720;28;20209;-66
2023/07/16 05:43:18;;;;;;;6.85;6.55;;;20.00;99.90;;;;;;5030792;28;20201;-68
2023/07/16 05:45:44;;;;;;;6.70;6.50;;;20.10;99.90;;;;;;5030817;28;20228;-67
2023/07/16 05:48:13;;;;;;;6.90;6.70;;;20.20;99.90;;;;;;5030933;28;20199;-68
2023/07/16 05:50:39;;;;;;;6.50;6.30;;;20.20;99.90;;;;;;5029190;28;20204;-67
2023/07/16 05:53:06;;;;;;;6.40;6.20;;;20.20;99.90;;;;;;5030401;28;20250;-68
2023/07/16 05:55:33;;;;;;;6.60;6.40;;;20.30;99.90;;;;;;5030249;28;20235;-67
2023/07/16 05:58:00;;;;;;;6.68;6.47;;;20.20;99.90;;;;;;5029464;28;20210;-66
2023/07/16 06:00:27;;;;;;;6.90;6.65;;;20.30;99.90;;;;;;5029765;28;20556;-67
2023/07/16 06:02:53;;;;;;;6.63;6.32;;;20.30;99.90;;;;;;5030105;28;20200;-66
2023/07/16 06:05:22;;;;;;;6.63;6.43;;;20.30;99.90;;;;;;5029938;28;20235;-67
2023/07/16 06:07:49;;;;;;;6.63;6.43;;;20.30;99.90;;;;;;5030270;28;20200;-67
2023/07/16 06:10:16;;;;;;;6.22;6.00;;;20.30;99.90;;;;;;5029346;28;20303;-68
2023/07/16 06:12:43;;;;;;;6.80;6.60;;;20.40;99.90;;;;;;5030218;28;20220;-67
2023/07/16 06:15:10;;;;;;;6.10;5.90;;;20.40;99.90;;;;;;5030332;28;20311;-68
2023/07/16 06:17:37;;;;;;;7.65;7.35;;;20.50;99.90;;;;;;5030187;28;20204;-67
2023/07/16 06:20:05;;;;;;;6.28;6.07;;;20.60;99.90;;;;;;5029385;28;20215;-66
2023/07/16 06:22:34;;;;;;;6.30;6.10;;;20.50;99.90;;;;;;5029596;28;20209;-68
2023/07/16 06:25:00;;;;;;;6.03;5.82;;;20.50;99.90;;;;;;5030016;28;20604;-65
2023/07/16 06:27:27;;;;;;;6.35;6.05;;;20.60;99.90;;;;;;5030464;28;20215;-67
2023/07/16 06:29:54;;;;;;;6.50;6.30;;;20.60;99.90;;;;;;5030362;28;20579;-69
2023/07/16 06:32:21;;;;;;;6.75;6.55;;;20.60;99.90;;;;;;5031066;28;20220;-66
2023/07/16 06:34:48;;;;;;;6.15;5.95;;;20.70;99.90;;;;;;5030531;28;20775;-67
2023/07/16 06:37:15;;;;;;;6.32;6.13;;;20.70;99.90;;;;;;5035578;22;20231;-68
2023/07/16 06:39:43;;;;;;;6.47;6.28;;;20.80;99.90;;;;;;5023145;28;20292;-68
2023/07/16 06:42:09;;;;;;;6.20;6.00;;;20.90;99.90;;;;;;5016012;28;20296;-68
2023/07/16 06:44:36;;;;;;;6.20;5.95;;;20.90;99.90;;;;;;5015052;28;20205;-67
2023/07/16 06:47:03;;;;;;;6.15;5.95;;;21.00;99.90;;;;;;5015939;28;20736;-68
2023/07/16 06:49:31;;;;;;;6.10;5.90;;;21.00;99.90;;;;;;5013218;28;20201;-68
2023/07/16 06:51:57;;;;;;;5.85;5.65;;;21.10;99.90;;;;;;5014371;28;20323;-69
2023/07/16 06:54:24;;;;;;;6.65;6.35;;;21.10;99.90;;;;;;5013714;28;20215;-68
2023/07/16 06:56:52;;;;;;;6.15;5.95;;;21.10;99.90;;;;;;5011078;28;20243;-70
2023/07/16 06:59:19;;;;;;;6.00;5.80;;;21.10;99.90;;;;;;5013621;28;20583;-69
2023/07/16 07:01:46;;;;;;;5.88;5.68;;;21.20;99.90;;;;;;5013843;28;20305;-68
2023/07/16 07:04:13;;;;;;;5.88;5.68;;;21.30;99.90;;;;;;5013102;28;20208;-69
2023/07/16 07:06:41;;;;;;;5.88;5.68;;;21.40;99.90;;;;;;5014714;28;20227;-69
2023/07/16 07:09:07;;;;;;;6.47;6.28;;;21.50;99.90;;;;;;5013220;28;20233;-67
2023/07/16 07:11:34;;;;;;;6.57;6.35;;;21.60;99.90;;;;;;5014079;28;20211;-69
2023/07/16 07:14:02;;;;;;;6.20;6.00;;;21.60;99.90;;;;;;5014289;28;20248;-66
2023/07/16 07:16:29;;;;;;;6.60;6.40;;;21.60;99.90;;;;;;5014273;28;20229;-67
2023/07/16 07:18:57;;;;;;;6.15;5.95;;;21.80;99.90;;;;;;5014495;28;20237;-70
2023/07/16 07:21:24;;;;;;;6.45;6.25;;;21.70;99.90;;;;;;5036426;28;20254;-67
2023/07/16 07:23:51;;;;;;;6.53;6.32;;;21.80;99.90;;;;;;5030779;28;20201;-68
2023/07/16 07:26:17;;;;;;;5.90;5.70;;;21.80;99.90;;;;;;5018923;28;20732;-67
2023/07/16 07:28:44;;;;;;;6.15;5.95;;;21.80;99.90;;;;;;5033395;28;20205;-68
2023/07/16 07:31:12;;;;;;;6.53;6.32;;;21.80;99.90;;;;;;5022402;28;20232;-69
2023/07/16 07:33:39;;;;;;;5.95;5.75;;;21.90;99.90;;;;;;5015656;28;20225;-68
2023/07/16 07:36:06;;;;;;;6.82;6.53;;;21.80;99.90;;;;;;5015207;28;20601;-68
2023/07/16 07:38:33;;;;;;;6.20;6.00;;;21.70;99.90;;;;;;5014665;28;20212;-68
2023/07/16 07:41:00;;;;;;;6.20;6.00;;;21.80;99.90;;;;;;5013000;28;20209;-69
2023/07/16 07:43:27;;;;;;;6.88;6.68;;;21.80;99.90;;;;;;5013419;28;20221;-68
2023/07/16 07:45:54;;;;;;;6.55;6.35;;;21.80;99.90;;;;;;5013375;28;20220;-68
2023/07/16 07:48:22;;;;;;;6.57;6.38;;;21.70;99.90;;;;;;5012973;28;20197;-68
2023/07/16 07:50:49;;;;;;;6.55;6.35;;;21.70;99.90;;;;;;5011887;28;20666;-69
2023/07/16 07:53:18;;;;;;;6.68;6.47;;;21.70;99.90;;;;;;5012742;28;20699;-68
2023/07/16 07:55:45;;;;;;;7.10;6.90;;;21.90;99.90;;;;;;5013163;28;20232;-67
2023/07/16 07:58:13;;;;;;;6.57;6.38;;;22.20;99.90;;;;;;5013459;28;20681;-69
2023/07/16 08:00:39;;;;;;;6.50;6.25;;;22.30;99.90;;;;;;5012350;28;20656;-67
2023/07/16 08:03:06;;;;;;;6.68;6.47;;;22.40;99.90;;;;;;5012242;28;20202;-67
2023/07/16 08:05:34;;;;;;;6.82;6.63;;;22.30;99.90;;;;;;4993098;28;20210;-66
2023/07/16 08:08:01;;;;;;;6.47;6.28;;;22.40;99.90;;;;;;4994425;28;20245;-66
2023/07/16 08:10:28;;;;;;;6.97;6.78;;;22.50;99.90;;;;;;5005516;28;20221;-69
2023/07/16 08:12:55;;;;;;;6.53;6.32;;;22.70;99.90;;;;;;5014058;28;20972;-67
2023/07/16 08:15:22;;;;;;;6.72;6.53;;;22.80;99.90;;;;;;5011645;28;20206;-67
2023/07/16 08:17:49;;;;;;;6.45;6.25;;;22.80;99.90;;;;;;5013735;28;20220;-65
2023/07/16 08:20:16;;;;;;;6.57;6.38;;;22.90;99.90;;;;;;5004411;28;20209;-67
2023/07/16 08:22:44;;;;;;;6.85;6.65;;;22.90;99.90;;;;;;5018128;28;20197;-67
2023/07/16 08:25:11;;;;;;;6.47;6.28;;;22.90;99.90;;;;;;5018141;28;20236;-68
2023/07/16 08:27:38;;;;;;;6.10;5.90;;;22.80;99.90;;;;;;5017781;28;20315;-68
2023/07/16 08:30:06;;;;;;;6.38;6.18;;;22.90;99.90;;;;;;5017523;28;20428;-67
2023/07/16 08:32:33;;;;;;;6.50;6.30;;;22.90;99.90;;;;;;5020698;28;20272;-65
2023/07/16 08:35:00;;;;;;;6.32;6.13;;;23.20;99.90;;;;;;5014015;28;20209;-66
2023/07/16 08:37:27;;;;;;;6.50;6.20;;;23.50;99.90;;;;;;5015686;28;20229;-68
2023/07/16 08:39:55;;;;;;;6.00;5.80;;;23.70;99.90;;;;;;5012623;28;20671;-68
2023/07/16 08:42:22;;;;;;;6.25;6.05;;;24.00;99.90;;;;;;5012256;28;20207;-68
2023/07/16 08:44:50;;;;;;;6.28;6.07;;;24.20;99.90;;;;;;5011590;28;20212;-67
2023/07/16 08:47:18;;;;;;;6.10;5.90;;;24.20;99.90;;;;;;5012951;28;20225;-67
2023/07/16 08:49:55;;;;;;;6.10;5.90;;;24.20;99.90;;;;;;5016537;28;20635;-68
2023/07/16 08:52:22;;;;;;;6.20;6.00;;;24.40;99.90;;;;;;5014548;28;20209;-68
2023/07/16 08:54:49;;;;;;;6.13;5.93;;;24.70;99.90;;;;;;5016833;28;20260;-70
2023/07/16 08:57:20;;;;;;;6.35;6.15;;;24.90;99.90;;;;;;5026286;28;20241;-66
2023/07/16 08:59:49;;;;;;;6.10;5.90;;;25.00;99.90;;;;;;5017639;28;20532;-68
2023/07/16 09:02:19;;;;;;;6.22;6.03;;;24.90;99.90;;;;;;5013387;28;20272;-68
2023/07/16 09:04:48;;;;;;;5.88;5.68;;;25.00;99.90;;;;;;5014047;28;20193;-69
2023/07/16 09:07:15;;;;;;;6.20;6.00;;;24.60;99.90;;;;;;5014392;28;20246;-67
2023/07/16 09:09:42;;;;;;;6.10;5.90;;;24.30;99.90;;;;;;5011818;28;20267;-68
2023/07/16 09:12:12;;;;;;;6.05;5.85;;;24.20;99.90;;;;;;5016688;28;20235;-68
2023/07/16 09:14:41;;;;;;;5.72;5.53;;;24.30;99.90;;;;;;5012942;28;20232;-68
2023/07/16 09:17:08;;;;;;;5.93;5.72;;;24.20;99.90;;;;;;5010015;28;20233;-69
2023/07/16 09:19:35;;;;;;;5.95;5.75;;;24.00;99.90;;;;;;5011623;28;20259;-68
2023/07/16 09:22:02;;;;;;;6.00;5.80;;;23.80;99.90;;;;;;5014371;28;20205;-69
2023/07/16 09:24:30;;;;;;;5.93;5.72;;;23.70;99.90;;;;;;5015530;28;20212;-66
2023/07/16 09:26:57;;;;;;;6.20;6.00;;;23.60;99.90;;;;;;5015059;28;20225;-67
2023/07/16 09:29:26;;;;;;;6.10;5.90;;;23.70;99.90;;;;;;5009078;28;21172;-69
2023/07/16 09:32:00;;;;;;;6.00;5.80;;;24.10;99.90;;;;;;5012243;28;20379;-67
2023/07/16 09:34:29;;;;;;;5.70;5.50;;;24.20;99.90;;;;;;5013358;28;20699;-69
2023/07/16 09:36:56;;;;;;;5.90;5.70;;;24.30;99.90;;;;;;5011120;28;20248;-68
2023/07/16 09:39:25;;;;;;;5.93;5.72;;;24.40;99.90;;;;;;5005837;28;20283;-67
2023/07/16 09:41:53;;;;;;;6.00;5.80;;;24.40;99.90;;;;;;5010556;28;20284;-69
2023/07/16 09:44:20;;;;;;;6.18;5.97;;;24.40;99.90;;;;;;5009964;28;20211;-68
2023/07/16 09:46:48;;;;;;;6.13;5.93;;;24.60;99.90;;;;;;5010220;28;20708;-69
2023/07/16 09:49:17;;;;;;;6.50;6.30;;;24.80;99.90;;;;;;5010488;28;20201;-67
2023/07/16 09:51:45;;;;;;;6.18;5.97;;;25.20;99.90;;;;;;5009416;28;20289;-68
2023/07/16 09:54:15;;;;;;;5.97;5.78;;;25.40;99.90;;;;;;5016308;28;20291;-68
2023/07/16 09:56:46;;;;;;;6.20;6.00;;;25.30;99.90;;;;;;5009631;28;20225;-66
2023/07/16 09:59:15;;;;;;;6.00;5.80;;;25.30;99.90;;;;;;5011003;28;20212;-68
2023/07/16 10:01:42;;;;;;;6.97;6.78;;;25.40;99.90;;;;;;4998405;28;20211;-66
2023/07/16 10:04:14;;;;;;;6.57;6.38;;;25.40;99.90;;;;;;5002206;28;20197;-70
2023/07/16 10:06:53;;;;;;;6.32;6.13;;;25.80;99.90;;;;;;5009933;28;20229;-67
2023/07/16 10:09:34;;;;;;;6.40;6.20;;;25.80;99.90;;;;;;5007874;28;20241;-65
2023/07/16 10:12:12;;;;;;;6.80;6.60;;;25.90;99.90;;;;;;5008831;28;20212;-69
2023/07/16 10:14:43;;;;;;;6.05;5.85;;;25.90;99.90;;;;;;5006375;28;20225;-69
2023/07/16 10:17:15;;;;;;;6.47;6.18;;;25.70;99.90;;;;;;5005815;28;20229;-68
2023/07/16 10:19:49;;;;;;;7.15;6.90;;;25.50;99.90;;;;;;5007654;28;20205;-68
2023/07/16 10:22:19;;;;;;;6.20;6.00;;;25.30;99.90;;;;;;5008863;28;20224;-69
2023/07/16 10:24:52;;;;;;;6.72;6.53;;;25.20;99.90;;;;;;5009414;28;20228;-67
2023/07/16 10:27:28;;;;;;;6.30;6.10;;;25.40;99.90;;;;;;5009851;28;20732;-65
2023/07/16 10:29:55;;;;;;;5.93;5.72;;;25.50;99.90;;;;;;5014025;28;20211;-65
2023/07/16 10:32:22;;;;;;;5.97;5.78;;;25.50;99.90;;;;;;5018356;28;20213;-65
2023/07/16 10:34:49;;;;;;;5.72;5.53;;;25.60;99.90;;;;;;5009732;28;20225;-68
2023/07/16 10:37:17;;;;;;;6.20;6.00;;;25.70;99.90;;;;;;5007920;28;21095;-68
2023/07/16 10:39:48;;;;;;;6.63;6.43;;;25.80;99.90;;;;;;5012566;28;20605;-68
2023/07/16 10:42:17;;;;;;;7.30;7.00;;;26.00;99.90;;;;;;5007969;28;20267;-66
2023/07/16 10:44:44;;;;;;;7.93;7.65;;;26.10;99.90;;;;;;5007809;28;20583;-69
2023/07/16 10:47:19;;;;;;;29.90;28.45;;;26.10;99.90;;;;;;5007731;28;20232;-68
2023/07/16 10:49:46;;;;;;;17.92;17.13;;;25.80;99.90;;;;;;5007257;28;20640;-68
2023/07/16 10:52:12;;;;;;;12.70;12.20;;;25.40;99.90;;;;;;5007973;28;20343;-69
2023/07/16 10:54:42;;;;;;;6.30;6.10;;;24.90;99.90;;;;;;5007516;28;20225;-66
2023/07/16 10:57:09;;;;;;;6.28;6.07;;;24.90;99.90;;;;;;5011785;28;20231;-68
2023/07/16 10:59:39;;;;;;;6.20;6.00;;;25.00;99.90;;;;;;5007633;28;20213;-69
2023/07/16 11:02:10;;;;;;;6.70;6.50;;;24.90;99.90;;;;;;5010577;28;20267;-66
2023/07/16 11:04:37;;;;;;;6.20;6.00;;;24.90;99.90;;;;;;5011651;28;20940;-67
2023/07/16 11:07:08;;;;;;;5.90;5.70;;;25.00;99.90;;;;;;5017815;28;20222;-66
2023/07/16 11:09:35;;;;;;;5.75;5.55;;;25.20;99.90;;;;;;5019098;28;20214;-68
2023/07/16 11:12:09;;;;;;;16.73;16.02;;;25.20;99.90;;;;;;5013194;28;20248;-68
2023/07/16 11:14:37;;;;;;;7.18;6.88;;;24.80;99.90;;;;;;5018740;28;20216;-67
2023/07/16 11:17:10;;;;;;;7.20;6.90;;;24.40;99.90;;;;;;5019922;28;20235;-67
2023/07/16 11:19:38;;;;;;;6.10;5.90;;;24.60;99.90;;;;;;5013670;28;20269;-67
2023/07/16 11:22:08;;;;;;;6.10;5.90;;;24.60;99.90;;;;;;5012684;28;20666;-68
2023/07/16 11:24:40;;;;;;;6.18;5.97;;;24.80;99.90;;;;;;5018902;28;20204;-67
2023/07/16 11:27:13;;;;;;;5.60;5.40;;;24.80;99.90;;;;;;5007172;28;20256;-69
2023/07/16 11:29:41;;;;;;;5.97;5.78;;;24.90;99.90;;;;;;5013812;28;20201;-67
2023/07/16 11:32:09;;;;;;;6.40;6.20;;;25.10;99.90;;;;;;5014918;28;20573;-68
2023/07/16 11:34:36;;;;;;;6.30;6.10;;;25.30;99.90;;;;;;5016675;28;20726;-67
2023/07/16 11:37:10;;;;;;;7.57;7.28;;;25.50;99.90;;;;;;5015840;28;20240;-67
2023/07/16 11:39:37;;;;;;;6.03;5.82;;;25.70;99.90;;;;;;5008551;28;20211;-70
2023/07/16 11:42:05;;;;;;;7.85;7.55;;;25.80;99.90;;;;;;5015237;28;20650;-68
2023/07/16 11:44:37;;;;;;;11.55;11.15;;;26.10;99.90;;;;;;5014835;28;20209;-69
2023/07/16 11:47:05;;;;;;;6.03;5.82;;;26.20;99.90;;;;;;5015815;28;20233;-67
2023/07/16 11:49:32;;;;;;;6.60;6.40;;;26.20;99.90;;;;;;5014462;28;20197;-70
2023/07/16 11:51:59;;;;;;;6.63;6.32;;;26.10;99.90;;;;;;5020493;28;20213;-67
2023/07/16 11:54:26;;;;;;;6.50;6.30;;;26.00;99.90;;;;;;5016354;28;20240;-70
2023/07/16 11:56:54;;;;;;;6.57;6.38;;;26.30;99.90;;;;;;5020033;28;20229;-67
2023/07/16 11:59:21;;;;;;;7.93;7.63;;;26.50;99.90;;;;;;5015277;28;20236;-68
2023/07/16 12:01:50;;;;;;;6.72;6.53;;;26.40;99.90;;;;;;5018244;28;20210;-68
2023/07/16 12:04:17;;;;;;;7.10;6.80;;;26.10;99.90;;;;;;5019332;28;20205;-68
2023/07/16 12:06:44;;;;;;;7.25;6.95;;;26.10;99.90;;;;;;5006772;28;20230;-68
2023/07/16 12:09:11;;;;;;;7.32;7.10;;;26.20;99.90;;;;;;5002199;28;20210;-68
2023/07/16 12:11:38;;;;;;;6.65;6.45;;;26.10;99.90;;;;;;5017100;28;20230;-67
2023/07/16 12:14:05;;;;;;;6.85;6.65;;;26.30;99.90;;;;;;5014550;28;20864;-69
2023/07/16 12:16:32;;;;;;;7.30;7.00;;;26.40;99.90;;;;;;5020440;28;20221;-67
2023/07/16 12:19:01;;;;;;;7.00;6.80;;;26.60;99.90;;;;;;5011102;28;20209;-69
2023/07/16 12:21:27;;;;;;;6.50;6.30;;;26.50;99.90;;;;;;5014448;28;20758;-66
2023/07/16 12:23:54;;;;;;;39.85;38.08;;;26.70;99.90;;;;;;5014441;28;20256;-68
2023/07/16 12:26:21;;;;;;;7.22;7.03;;;26.60;99.90;;;;;;5027972;28;20284;-69
2023/07/16 12:28:48;;;;;;;6.85;6.60;;;26.10;99.90;;;;;;5028056;28;20198;-66
2023/07/16 12:31:16;;;;;;;6.55;6.35;;;26.00;99.90;;;;;;5019179;28;20223;-66
2023/07/16 12:33:43;;;;;;;25.50;24.45;;;26.00;99.90;;;;;;5020128;28;20205;-67
2023/07/16 12:38:48;;;;;;;7.60;7.30;;;26.10;99.90;;;;;;5000487;28;20220;-65
2023/07/16 12:41:16;;;;;;;6.78;6.57;;;26.10;99.90;;;;;;4993306;28;20660;-66
2023/07/16 12:43:43;;;;;;;6.78;6.55;;;26.00;99.90;;;;;;4992932;28;20746;-65
2023/07/16 12:46:09;;;;;;;7.40;7.10;;;26.10;99.90;;;;;;4993660;28;20214;-66
2023/07/16 12:48:36;;;;;;;7.10;6.90;;;26.30;99.90;;;;;;4996408;28;20209;-66
2023/07/16 12:51:04;;;;;;;6.70;6.50;;;26.40;99.90;;;;;;5007098;28;20292;-66